createdAt,value
2022-10-20T00:02:12.863Z,100283.50
2022-10-20T00:04:40.369Z,100280.81
2022-10-20T00:07:08.399Z,100283.03
2022-10-20T00:09:35.936Z,100287.66
2022-10-20T00:12:03.638Z,100288.63
2022-10-20T00:14:33.470Z,100284.28
2022-10-20T00:17:01.604Z,100268.94
2022-10-20T00:19:29.965Z,100259.53
2022-10-20T00:21:57.706Z,100263.00
2022-10-20T00:24:25.395Z,100261.22
2022-10-20T00:26:52.904Z,100269.16
2022-10-20T00:29:20.601Z,100258.59
2022-10-20T00:31:48.160Z,100250.56
2022-10-20T00:34:15.701Z,100253.28
2022-10-20T00:36:46.329Z,100256.94
2022-10-20T00:39:16.539Z,100251.66
2022-10-20T00:41:44.044Z,100245.53
2022-10-20T00:44:49.090Z,100251.41
2022-10-20T00:47:27.413Z,100259.22
2022-10-20T00:49:57.994Z,100247.53
2022-10-20T00:52:25.556Z,100247.47
2022-10-20T00:54:53.080Z,100232.72
2022-10-20T00:57:20.590Z,100230.78
2022-10-20T00:59:48.117Z,100239.44
2022-10-20T01:02:16.032Z,100236.34
2022-10-20T01:04:43.820Z,100240.97
2022-10-20T01:07:12.705Z,100239.25
2022-10-20T01:09:40.261Z,100240.03
2022-10-20T01:12:27.228Z,100248.72
2022-10-20T01:15:34.353Z,100240.03
2022-10-20T01:18:11.478Z,100238.84
2022-10-20T01:21:00.888Z,100236.34
2022-10-20T01:23:36.365Z,100226.44
2022-10-20T01:26:12.752Z,100229.16
2022-10-20T01:28:51.902Z,100225.50
2022-10-20T01:31:45.780Z,100225.06
2022-10-20T01:34:31.706Z,100229.44
2022-10-20T01:37:28.133Z,100221.03
2022-10-20T01:40:12.300Z,100234.50
2022-10-20T01:42:42.125Z,100224.63
2022-10-20T01:45:10.920Z,100227.31
2022-10-20T01:47:42.665Z,100218.09
2022-10-20T01:50:11.321Z,100217.94
2022-10-20T01:52:39.392Z,100216.25
2022-10-20T01:55:17.260Z,100222.25
2022-10-20T01:58:28.458Z,100216.03
2022-10-20T02:01:28.673Z,100211.69
2022-10-20T02:04:00.289Z,100210.75
2022-10-20T02:06:58.335Z,100218.94
2022-10-20T02:09:34.834Z,100210.97
2022-10-20T02:12:08.007Z,100207.81
2022-10-20T02:14:38.702Z,100212.06
2022-10-20T02:17:09.993Z,100203.41
2022-10-20T02:19:43.606Z,100203.59
2022-10-20T02:22:14.297Z,100212.09
2022-10-20T02:24:44.916Z,100208.59
2022-10-20T02:27:35.521Z,100204.53
2022-10-20T02:30:08.051Z,100206.81
2022-10-20T02:32:39.373Z,100206.91
2022-10-20T02:35:14.837Z,100204.25
2022-10-20T02:37:42.521Z,100199.63
2022-10-20T02:40:11.518Z,100203.22
2022-10-20T02:42:40.919Z,100194.75
2022-10-20T02:45:08.858Z,100189.25
2022-10-20T02:47:36.987Z,100199.56
2022-10-20T02:50:06.420Z,100190.78
2022-10-20T02:52:38.039Z,100195.13
2022-10-20T02:55:06.517Z,100186.53
2022-10-20T02:57:35.075Z,100181.72
2022-10-20T03:00:04.903Z,100188.69
2022-10-20T03:02:32.434Z,100183.13
2022-10-20T03:05:00.000Z,100185.31
2022-10-20T03:07:27.530Z,100178.94
2022-10-20T03:09:57.141Z,100174.50
2022-10-20T03:12:27.769Z,100169.72
2022-10-20T03:14:57.739Z,100174.25
2022-10-20T03:17:25.253Z,100175.31
2022-10-20T03:19:52.764Z,100178.50
2022-10-20T03:22:21.118Z,100177.00
2022-10-20T03:24:48.985Z,100167.94
2022-10-20T03:27:16.618Z,100165.88
2022-10-20T03:29:44.723Z,100163.59
2022-10-20T03:32:12.192Z,100164.06
2022-10-20T03:34:42.538Z,100169.47
2022-10-20T03:37:10.053Z,100162.16
2022-10-20T03:39:37.911Z,100173.69
2022-10-20T03:42:05.380Z,100154.34
2022-10-20T03:44:32.910Z,100150.97
2022-10-20T03:47:00.377Z,100155.56
2022-10-20T03:49:27.840Z,100158.13
2022-10-20T03:51:55.458Z,100149.44
2022-10-20T03:54:24.129Z,100147.56
2022-10-20T03:56:52.038Z,100141.13
2022-10-20T03:59:19.524Z,100138.59
2022-10-20T04:01:47.469Z,100140.88
2022-10-20T04:04:15.426Z,100134.84
2022-10-20T04:07:02.866Z,100135.03
2022-10-20T04:09:30.748Z,100135.50
2022-10-20T04:11:58.278Z,100133.59
2022-10-20T04:14:25.786Z,100122.38
2022-10-20T04:16:53.276Z,100131.25
2022-10-20T04:19:20.816Z,100127.84
2022-10-20T04:21:50.800Z,100131.41
2022-10-20T04:24:18.427Z,100127.06
2022-10-20T04:29:15.768Z,100128.00
2022-10-20T04:31:46.808Z,100133.56
2022-10-20T04:34:16.664Z,100127.91
2022-10-20T04:36:45.160Z,100127.44
2022-10-20T04:39:13.701Z,100137.53
2022-10-20T04:41:42.791Z,100132.81
2022-10-20T04:44:10.602Z,100134.50
2022-10-20T04:46:39.660Z,100140.00
2022-10-20T04:49:07.911Z,100142.06
2022-10-20T04:51:35.966Z,100143.28
2022-10-20T04:56:37.010Z,100140.84
2022-10-20T04:59:08.310Z,100144.44
2022-10-20T05:01:39.907Z,100144.22
2022-10-20T05:04:07.628Z,100146.97
2022-10-20T05:06:35.884Z,100150.72
2022-10-20T05:09:08.024Z,100143.94
2022-10-20T05:11:37.471Z,100148.28
2022-10-20T05:14:05.129Z,100146.59
2022-10-20T05:16:32.620Z,100146.00
2022-10-20T05:19:00.958Z,100144.66
2022-10-20T05:21:31.522Z,100143.53
2022-10-20T05:24:05.093Z,100146.66
2022-10-20T05:26:37.105Z,100151.53
2022-10-20T05:29:07.081Z,100154.69
2022-10-20T05:31:42.784Z,100168.06
2022-10-20T05:34:11.436Z,100163.91
2022-10-20T05:36:39.924Z,100164.25
2022-10-20T05:39:07.357Z,100170.47
2022-10-20T05:41:38.736Z,100177.63
2022-10-20T05:44:11.273Z,100182.19
2022-10-20T05:46:41.873Z,100185.88
2022-10-20T05:49:15.749Z,100192.84
2022-10-20T05:51:45.979Z,100202.19
2022-10-20T05:54:14.698Z,100215.53
2022-10-20T05:56:44.092Z,100216.03
2022-10-20T05:59:12.263Z,100223.19
2022-10-20T06:01:48.446Z,100225.19
2022-10-20T06:04:25.758Z,100230.56
2022-10-20T06:06:56.056Z,100233.25
2022-10-20T06:09:24.597Z,100240.03
2022-10-20T06:11:54.215Z,100241.63
2022-10-20T06:14:22.713Z,100250.84
2022-10-20T06:16:52.017Z,100266.75
2022-10-20T06:19:20.073Z,100273.34
2022-10-20T06:21:49.591Z,100249.94
2022-10-20T06:24:19.161Z,100256.41
2022-10-20T06:26:47.077Z,100255.22
2022-10-20T06:29:17.004Z,100259.63
2022-10-20T06:31:50.087Z,100256.53
2022-10-20T06:34:25.852Z,100271.31
2022-10-20T06:36:53.527Z,100265.47
2022-10-20T06:39:23.858Z,100281.53
2022-10-20T06:41:53.708Z,100285.19
2022-10-20T06:44:24.080Z,100273.13
2022-10-20T06:46:55.292Z,100281.28
2022-10-20T06:49:23.480Z,100275.94
2022-10-20T06:51:51.036Z,100276.16
2022-10-20T06:54:21.475Z,100281.91
2022-10-20T06:56:49.052Z,100272.59
2022-10-20T06:59:16.850Z,100276.38
2022-10-20T07:01:44.665Z,100268.03
2022-10-20T07:04:15.517Z,100279.56
2022-10-20T07:06:45.283Z,100291.50
2022-10-20T07:09:14.729Z,100294.41
2022-10-20T07:11:43.032Z,100296.19
2022-10-20T07:14:13.737Z,100311.94
2022-10-20T07:16:44.041Z,100310.25
2022-10-20T07:19:11.967Z,100312.56
2022-10-20T07:21:41.768Z,100316.03
2022-10-20T07:24:13.489Z,100319.59
2022-10-20T07:26:41.827Z,100325.94
2022-10-20T07:29:10.629Z,100319.97
2022-10-20T07:31:44.947Z,100314.84
2022-10-20T07:34:25.089Z,100314.84
2022-10-20T07:36:54.996Z,100303.75
2022-10-20T07:39:23.271Z,100317.94
2022-10-20T07:41:51.060Z,100316.81
2022-10-20T07:44:19.209Z,100322.34
2022-10-20T07:46:47.151Z,100323.91
2022-10-20T07:52:02.735Z,100321.75
2022-10-20T07:54:30.687Z,100319.44
2022-10-20T07:56:58.221Z,100325.34
2022-10-20T07:59:25.980Z,100309.09
2022-10-20T08:01:56.137Z,100328.97
2022-10-20T08:04:25.495Z,100318.53
2022-10-20T08:06:52.971Z,100314.78
2022-10-20T08:09:22.355Z,100320.88
2022-10-20T08:11:52.859Z,100315.44
2022-10-20T08:14:23.891Z,100318.13
2022-10-20T08:16:52.063Z,100320.94
2022-10-20T08:22:02.416Z,100321.53
2022-10-20T08:24:30.394Z,100323.91
2022-10-20T08:27:01.735Z,100324.84
2022-10-20T08:29:29.587Z,100325.09
2022-10-20T08:31:57.078Z,100328.22
2022-10-20T08:34:24.628Z,100334.00
2022-10-20T08:36:52.315Z,100328.75
2022-10-20T08:39:19.855Z,100338.19
2022-10-20T08:44:41.337Z,100346.72
2022-10-20T08:47:26.755Z,100329.28
2022-10-20T08:49:57.576Z,100348.84
2022-10-20T08:52:27.170Z,100341.41
2022-10-20T08:54:57.000Z,100333.53
2022-10-20T08:57:29.708Z,100349.84
2022-10-20T09:00:14.078Z,100336.84
2022-10-20T09:02:41.714Z,100313.91
2022-10-20T09:05:16.684Z,100338.66
2022-10-20T09:07:50.026Z,100323.97
2022-10-20T09:10:45.588Z,100325.13
2022-10-20T09:13:34.280Z,100334.88
2022-10-20T09:16:07.036Z,100334.00
2022-10-20T09:18:35.306Z,100346.81
2022-10-20T09:21:15.566Z,100337.09
2022-10-20T09:26:57.523Z,100339.13
2022-10-20T09:29:35.775Z,100352.47
2022-10-20T09:32:22.495Z,100322.59
2022-10-20T09:34:50.863Z,100347.81
2022-10-20T09:37:20.048Z,100353.75
2022-10-20T09:39:55.417Z,100344.28
2022-10-20T09:42:28.369Z,100366.13
2022-10-20T09:45:22.283Z,100355.88
2022-10-20T09:47:56.858Z,100367.19
2022-10-20T09:50:34.600Z,100356.88
2022-10-20T09:53:06.496Z,100365.66
2022-10-20T09:55:45.258Z,100374.44
2022-10-20T09:58:27.544Z,100347.66
2022-10-20T10:00:59.391Z,100366.38
2022-10-20T10:03:28.021Z,100371.13
2022-10-20T10:05:59.746Z,100366.72
2022-10-20T10:08:40.871Z,100371.97
2022-10-20T10:11:17.870Z,100373.00
2022-10-20T10:13:48.085Z,100375.44
2022-10-20T10:16:19.676Z,100382.09
2022-10-20T10:18:57.144Z,100352.91
2022-10-20T10:21:24.790Z,100373.81
2022-10-20T10:23:54.324Z,100371.03
2022-10-20T10:26:46.360Z,100364.19
2022-10-20T10:29:23.179Z,100380.75
2022-10-20T10:31:58.485Z,100375.28
2022-10-20T10:34:37.721Z,100382.16
2022-10-20T10:37:12.866Z,100370.50
2022-10-20T10:39:41.720Z,100373.91
2022-10-20T10:42:09.197Z,100387.56
2022-10-20T10:44:55.202Z,100401.09
2022-10-20T10:47:54.993Z,100403.63
2022-10-20T10:50:28.499Z,100396.53
2022-10-20T10:53:26.120Z,100407.59
2022-10-20T10:56:24.089Z,100406.56
2022-10-20T10:59:05.785Z,100406.13
2022-10-20T11:01:51.350Z,100419.38
2022-10-20T11:04:46.713Z,100418.19
2022-10-20T11:08:13.308Z,100420.28
2022-10-20T11:11:34.340Z,100415.47
2022-10-20T11:14:28.123Z,100418.44
2022-10-20T11:17:20.097Z,100425.69
2022-10-20T11:20:09.227Z,100412.63
2022-10-20T11:23:09.495Z,100420.47
2022-10-20T11:25:55.563Z,100415.69
2022-10-20T11:28:32.968Z,100420.91
2022-10-20T11:31:00.980Z,100410.69
2022-10-20T11:33:41.452Z,100421.66
2022-10-20T11:36:16.922Z,100409.63
2022-10-20T11:38:54.017Z,100428.59
2022-10-20T11:41:32.320Z,100442.59
2022-10-20T11:44:08.491Z,100419.66
2022-10-20T11:47:08.308Z,100424.41
2022-10-20T11:49:40.009Z,100424.31
2022-10-20T11:52:16.777Z,100434.44
2022-10-20T11:54:55.193Z,100409.88
2022-10-20T11:57:47.217Z,100437.81
2022-10-20T12:00:55.098Z,100428.19
2022-10-20T12:03:55.087Z,100437.63
2022-10-20T12:06:33.508Z,100446.31
2022-10-20T12:09:14.837Z,100454.66
2022-10-20T12:12:00.931Z,100448.38
2022-10-20T12:14:41.496Z,100455.06
2022-10-20T12:17:42.188Z,100458.41
2022-10-20T12:20:23.008Z,100451.41
2022-10-20T12:22:54.007Z,100463.22
2022-10-20T12:25:27.296Z,100462.72
2022-10-20T12:28:19.767Z,100471.22
2022-10-20T12:31:02.306Z,100470.06
2022-10-20T12:33:59.986Z,100460.09
2022-10-20T12:36:36.852Z,100471.50
2022-10-20T12:39:13.283Z,100479.66
2022-10-20T12:41:56.379Z,100470.81
2022-10-20T12:44:24.705Z,100469.75
2022-10-20T12:46:55.769Z,100494.06
2022-10-20T12:49:57.362Z,100486.25
2022-10-20T12:52:30.362Z,100493.00
2022-10-20T12:58:18.132Z,100483.03
2022-10-20T13:00:49.605Z,100502.38
2022-10-20T13:03:32.511Z,100507.19
2022-10-20T13:06:00.477Z,100502.81
2022-10-20T13:08:33.875Z,100511.38
2022-10-20T13:11:38.351Z,100520.75
2022-10-20T13:14:06.418Z,100519.03
2022-10-20T13:16:35.377Z,100523.34
2022-10-20T13:19:08.492Z,100525.91
2022-10-20T13:21:36.615Z,100532.84
2022-10-20T13:24:13.662Z,100534.56
2022-10-20T13:26:43.898Z,100540.50
2022-10-20T13:29:17.831Z,100536.91
2022-10-20T13:31:56.647Z,100534.28
2022-10-20T13:34:31.162Z,100550.72
2022-10-20T13:37:28.160Z,100556.81
2022-10-20T13:39:55.653Z,100564.56
2022-10-20T13:42:41.806Z,100554.97
2022-10-20T13:45:12.624Z,100562.63
2022-10-20T13:47:48.524Z,100565.91
2022-10-20T13:50:44.207Z,100559.47
2022-10-20T13:53:25.982Z,100566.44
2022-10-20T13:56:07.873Z,100573.97
2022-10-20T13:58:36.341Z,100569.44
2022-10-20T14:01:17.003Z,100588.53
2022-10-20T14:03:47.183Z,100594.53
2022-10-20T14:06:34.920Z,100591.91
2022-10-20T14:09:18.616Z,100586.53
2022-10-20T14:12:14.672Z,100602.13
2022-10-20T14:14:45.628Z,100607.81
2022-10-20T14:17:22.802Z,100590.28
2022-10-20T14:19:52.058Z,100612.22
2022-10-20T14:22:23.408Z,100616.63
2022-10-20T14:24:54.402Z,100614.69
2022-10-20T14:27:25.842Z,100623.19
2022-10-20T14:29:54.080Z,100625.03
2022-10-20T14:32:28.235Z,100617.16
2022-10-20T14:34:58.009Z,100633.75
2022-10-20T14:37:28.562Z,100623.06
2022-10-20T14:40:02.353Z,100642.19
2022-10-20T14:42:32.477Z,100634.59
2022-10-20T14:45:02.920Z,100648.44
2022-10-20T14:47:40.159Z,100652.75
2022-10-20T14:50:19.416Z,100639.63
2022-10-20T14:52:50.321Z,100655.47
2022-10-20T14:55:37.261Z,100661.44
2022-10-20T14:58:04.922Z,100661.72
2022-10-20T15:00:36.733Z,100653.72
2022-10-20T15:03:07.206Z,100657.66
2022-10-20T15:05:45.305Z,100661.06
2022-10-20T15:08:31.296Z,100663.75
2022-10-20T15:11:02.453Z,100679.50
2022-10-20T15:13:34.638Z,100671.28
2022-10-20T15:16:04.587Z,100683.63
2022-10-20T15:18:36.559Z,100683.75
2022-10-20T15:21:08.191Z,100692.31
2022-10-20T15:23:35.903Z,100700.19
2022-10-20T15:26:13.872Z,100697.63
2022-10-20T15:28:51.021Z,100698.47
2022-10-20T15:31:26.607Z,100712.41
2022-10-20T15:33:55.929Z,100707.03
2022-10-20T15:36:29.650Z,100717.53
2022-10-20T15:39:00.350Z,100710.47
2022-10-20T15:41:35.157Z,100717.34
2022-10-20T15:44:07.916Z,100724.09
2022-10-20T15:46:36.433Z,100737.13
2022-10-20T15:49:04.116Z,100722.44
2022-10-20T15:51:34.816Z,100727.63
2022-10-20T15:54:02.969Z,100731.03
2022-10-20T15:56:30.884Z,100713.72
2022-10-20T15:58:58.990Z,100754.78
2022-10-20T16:01:28.110Z,100748.63
2022-10-20T16:03:56.005Z,100743.16
2022-10-20T16:06:23.758Z,100744.97
2022-10-20T16:08:51.990Z,100746.63
2022-10-20T16:11:21.834Z,100760.63
2022-10-20T16:13:50.073Z,100752.75
2022-10-20T16:16:19.487Z,100758.94
2022-10-20T16:18:50.524Z,100751.13
2022-10-20T16:21:18.171Z,100766.59
2022-10-20T16:23:45.755Z,100769.28
2022-10-20T16:26:15.122Z,100774.44
2022-10-20T16:28:42.723Z,100782.53
2022-10-20T16:31:13.138Z,100782.53
2022-10-20T16:33:41.160Z,100786.53
2022-10-20T16:36:11.024Z,100792.72
2022-10-20T16:38:40.273Z,100795.34
2022-10-20T16:41:10.951Z,100786.47
2022-10-20T16:43:40.791Z,100787.41
2022-10-20T16:46:10.071Z,100791.66
2022-10-20T16:48:42.710Z,100801.16
2022-10-20T16:51:13.234Z,100791.50
2022-10-20T16:53:41.421Z,100792.66
2022-10-20T16:56:09.107Z,100805.56
2022-10-20T16:58:36.740Z,100794.31
2022-10-20T17:01:09.833Z,100795.13
2022-10-20T17:03:41.181Z,100796.97
2022-10-20T17:06:09.512Z,100800.47
2022-10-20T17:08:38.881Z,100805.63
2022-10-20T17:11:12.650Z,100816.00
2022-10-20T17:13:41.324Z,100829.13
2022-10-20T17:16:12.695Z,100814.22
2022-10-20T17:18:40.491Z,100821.25
2022-10-20T17:21:10.909Z,100814.34
2022-10-20T17:23:43.120Z,100814.41
2022-10-20T17:26:18.252Z,100809.97
2022-10-20T17:28:47.076Z,100827.16
2022-10-20T17:33:49.191Z,100829.97
2022-10-20T17:36:16.782Z,100827.34
2022-10-20T17:38:46.292Z,100816.00
2022-10-20T17:41:15.800Z,100835.25
2022-10-20T17:43:43.991Z,100835.31
2022-10-20T17:46:14.500Z,100834.56
2022-10-20T17:48:44.387Z,100837.00
2022-10-20T17:51:23.118Z,100836.34
2022-10-20T17:53:52.532Z,100840.97
2022-10-20T17:56:31.203Z,100854.06
2022-10-20T17:59:00.659Z,100844.50
2022-10-20T18:01:35.058Z,100854.88
2022-10-20T18:04:09.022Z,100855.72
2022-10-20T18:06:37.275Z,100856.63
2022-10-20T18:09:10.893Z,100863.41
2022-10-20T18:11:40.737Z,100858.16
2022-10-20T18:14:08.724Z,100870.28
2022-10-20T18:16:39.934Z,100875.25
2022-10-20T18:19:09.172Z,100855.97
2022-10-20T18:21:37.717Z,100876.00
2022-10-20T18:24:08.355Z,100874.22
2022-10-20T18:26:37.650Z,100882.38
2022-10-20T18:29:07.657Z,100885.72
2022-10-20T18:31:36.584Z,100888.28
2022-10-20T18:34:07.327Z,100882.16
2022-10-20T18:36:39.281Z,100881.31
2022-10-20T18:39:10.432Z,100894.59
2022-10-20T18:41:40.882Z,100894.38
2022-10-20T18:44:12.361Z,100902.31
2022-10-20T18:46:40.226Z,100905.94
2022-10-20T18:49:09.560Z,100907.69
2022-10-20T18:51:37.720Z,100917.22
2022-10-20T18:54:06.775Z,100925.91
2022-10-20T18:56:35.781Z,100915.41
2022-10-20T18:59:09.591Z,100919.91
2022-10-20T19:01:39.118Z,100927.78
2022-10-20T19:04:09.826Z,100929.25
2022-10-20T19:06:39.733Z,100929.38
2022-10-20T19:09:09.860Z,100941.47
2022-10-20T19:11:39.725Z,100936.72
2022-10-20T19:14:10.439Z,100930.63
2022-10-20T19:16:41.468Z,100940.25
2022-10-20T19:19:09.778Z,100952.31
2022-10-20T19:21:38.089Z,100960.16
2022-10-20T19:24:19.252Z,100964.50
2022-10-20T19:27:21.305Z,100963.63
2022-10-20T19:29:43.213Z,100975.06
2022-10-20T19:32:12.338Z,100968.78
2022-10-20T19:34:41.158Z,100981.13
2022-10-20T19:37:10.141Z,100985.53
2022-10-20T19:39:41.160Z,100983.84
2022-10-20T19:42:09.945Z,100979.41
2022-10-20T19:44:38.660Z,100982.97
2022-10-20T19:47:08.118Z,100986.31
2022-10-20T19:49:36.210Z,101001.97
2022-10-20T19:52:04.461Z,100990.59
2022-10-20T19:54:32.445Z,100990.56
2022-10-20T19:57:00.137Z,101004.59
2022-10-20T19:59:27.788Z,101003.59
2022-10-20T20:01:55.397Z,100996.63
2022-10-20T20:04:23.243Z,100997.47
2022-10-20T20:06:50.887Z,101002.59
2022-10-20T20:09:19.049Z,101010.34
2022-10-20T20:11:46.668Z,101003.25
2022-10-20T20:14:18.892Z,101017.31
2022-10-20T20:16:47.737Z,101015.63
2022-10-20T20:19:17.247Z,101026.91
2022-10-20T20:21:46.125Z,101026.94
2022-10-20T20:24:14.304Z,101033.09
2022-10-20T20:26:42.100Z,101033.09
2022-10-20T20:29:10.730Z,101041.81
2022-10-20T20:31:38.294Z,101037.56
2022-10-20T20:34:05.789Z,101045.31
2022-10-20T20:36:33.336Z,101039.13
2022-10-20T20:39:01.327Z,101040.91
2022-10-20T20:41:31.254Z,101051.41
2022-10-20T20:44:02.942Z,101051.16
2022-10-20T20:46:34.388Z,101060.03
2022-10-20T20:49:02.299Z,101053.91
2022-10-20T20:51:33.522Z,101055.69
2022-10-20T20:54:02.975Z,101058.31
2022-10-20T20:56:31.644Z,101063.53
2022-10-20T20:58:59.168Z,101061.06
2022-10-20T21:01:28.619Z,101066.16
2022-10-20T21:03:58.584Z,101066.94
2022-10-20T21:06:33.889Z,101070.34
2022-10-20T21:09:08.171Z,101073.84
2022-10-20T21:11:37.831Z,101066.06
2022-10-20T21:14:07.585Z,101070.28
2022-10-20T21:16:37.332Z,101073.75
2022-10-20T21:19:09.720Z,101079.03
2022-10-20T21:21:44.444Z,101078.19
2022-10-20T21:24:13.539Z,101088.66
2022-10-20T21:26:41.074Z,101097.41
2022-10-20T21:29:08.559Z,101087.97
2022-10-20T21:31:39.247Z,101089.66
2022-10-20T21:34:07.228Z,101097.41
2022-10-20T21:36:37.818Z,101097.41
2022-10-20T21:39:07.225Z,101106.91
2022-10-20T21:41:36.420Z,101105.03
2022-10-20T21:44:06.297Z,101112.09
2022-10-20T21:46:44.003Z,101119.03
2022-10-20T21:49:18.463Z,101112.75
2022-10-20T21:51:49.352Z,101123.06
2022-10-20T21:56:49.332Z,101126.72
2022-10-20T21:59:36.846Z,101129.44
2022-10-20T22:02:05.328Z,101135.53
2022-10-20T22:04:33.109Z,101136.34
2022-10-20T22:07:01.033Z,101132.84
2022-10-20T22:10:32.696Z,101144.97
2022-10-20T22:13:02.423Z,101138.13
2022-10-20T22:15:30.345Z,101142.50
2022-10-20T22:17:59.834Z,101139.03
2022-10-20T22:20:27.447Z,101148.63
2022-10-20T22:22:55.098Z,101144.22
2022-10-20T22:25:22.788Z,101141.66
2022-10-20T22:27:50.334Z,101141.47
2022-10-20T22:30:18.235Z,101144.16
2022-10-20T22:32:45.860Z,101152.91
2022-10-20T22:35:13.475Z,101161.59
2022-10-20T22:37:41.085Z,101153.84
2022-10-20T22:40:09.285Z,101169.56
2022-10-20T22:42:38.940Z,101173.97
2022-10-20T22:45:07.319Z,101166.94
2022-10-20T22:47:34.904Z,101186.13
2022-10-20T22:50:02.806Z,101177.38
2022-10-20T22:52:30.705Z,101194.06
2022-10-20T22:55:00.527Z,101182.66
2022-10-20T22:57:28.167Z,101191.38
2022-10-20T22:59:55.615Z,101193.09
2022-10-20T23:02:23.114Z,101187.78
2022-10-20T23:04:50.898Z,101207.09
2022-10-20T23:07:18.458Z,101205.44
2022-10-20T23:09:47.748Z,101211.69
2022-10-20T23:12:17.497Z,101211.63
2022-10-20T23:14:45.411Z,101208.88
2022-10-20T23:17:12.970Z,101225.56
2022-10-20T23:19:40.580Z,101232.53
2022-10-20T23:22:08.229Z,101237.88
2022-10-20T23:24:36.136Z,101218.53
2022-10-20T23:27:03.750Z,101241.22
2022-10-20T23:29:32.313Z,101234.41
2022-10-20T23:31:59.840Z,101245.69
2022-10-20T23:34:27.640Z,101249.25
2022-10-20T23:36:55.219Z,101246.69
2022-10-20T23:39:22.757Z,101245.09
2022-10-20T23:41:50.348Z,101246.94
2022-10-20T23:44:17.853Z,101254.03
2022-10-20T23:46:45.380Z,101257.63
2022-10-20T23:49:13.194Z,101265.41
2022-10-20T23:51:41.337Z,101262.78
2022-10-20T23:54:08.867Z,101255.84
2022-10-20T23:56:36.353Z,101274.28
2022-10-20T23:59:03.802Z,101280.56
